Airfield :
LOGIN :

Register | Disclaimer

   EN    FR    IT 

 










Legend :    VFR   Marginal VFR   IFR   Intensive IFR   Very Intensive IFR
Visi :
Ceiling :
>= 8 km
>= 3000ft
5 to 8 km
1000 to 3000 ft
1500m to 5 km
500 to 1000 ft
800 to 1500m
200 to 500 ft
< 800m
< 200 ft
Symbols :   Thunderstorms  Fog  Heavy snow  Heavy precipitations  Wind > 20 kt
SIGMETs :     Misc.  Thunderstorms  Icing  Turbulence  Mountain Waves  Volcanic Ashes







- Airport Elevation : 479 ft
- IATA code : DOL
- Download approach charts


LFRG - Deauville

CURRENT METAR :
  • 250800Z AUTO 35011KT 310V020 9999 BKN029 07/02 Q1030 TEMPO 36015G25KT

EXPIRED METARs :
  • 250730Z AUTO 35011KT 310V030 9999 FEW026 OVC054 08/03 Q1030 TEMPO 36015G25KT
  • 250700Z AUTO 35010KT 300V020 9999 FEW018 SCT042 OVC050 08/04 Q1030 TEMPO 36015G25KT
  • 250630Z AUTO 34009KT 310V010 9999 BKN016 OVC052 08/05 Q1029 TEMPO 36015G25KT
  • 250600Z AUTO 34007KT 300V020 9999 FEW017 OVC050 07/05 Q1029 TEMPO 36015G25KT
  • 250530Z AUTO 34006KT 290V010 9999 FEW018 BKN058 07/05 Q1029 TEMPO 36015G25KT

TAF TAF LFRG
Valid from the 25 at 06:00 until the 25 at 15:00 UTC


250500Z 2506/2515 34010KT 9999 SCT020
TEMPO 2507/2511 36015G25KT
ATIS : +33 2 31 65 65 36
No reported NOTAMs for that airfield.



MET'MAP, your aeronautical weather chart ! - Copyright ORBIFLY December 2007 - Disclaimer

ORBIFLY MET'MAP TEAM :

Programming & Development : Alexandra Zaïnal
Concept & Development : Baudouin d'Aumeries
Co-Development & Prog : Marc-Olivier Méhu
Technical & hardware support : Manuel Goepfert

Contact : metmap@orbifly.com




SOURCES & CREDITS :

   NOAA